Deerfield, Michigan
Current Conditions -  °F | °C
As of 3:14 PM on Sunday 25 Jan 2015 (Local Time) from KDUH Reporting Station
Overcast Overcast  
Wind Chill: 16°   Ceiling: 3600
Heat Index: 27°   Visibility: 10mi
Dew Point: 16°   Wind: 13mph
Humidity: 64%   Direction: 60°ENE
Pressure: 29.86"   Gusts: 21mph
Location:  41.89°N, 83.78°W
Report Text: KDUH 252014Z AUTO 06011G18KT 10SM SCT028 OVC036 M03/M09 A2986 RMK AO2
Loading
Personal Weather Stations






























Interactive Weather Map New forecast layout! Learn more

10-Day Weather Forecast

Advertisements
Track Severe Weather on mobile